aviador You're here:

YPXM Decoded Metar

CHRISTMAS ISLAND in CHRISTMAS ISLAND
Report Time2017-06-27 05:07:00
UTC Time2017-06-27 05:14:30
Flight Rules lifr LIFR
Wind110° at 09 kt
W.Decomp.*RWY 18: 2.9 kt HW 8.5 kt LCW
W.Rank110° ranks 3
Current wind is below 110° avg. (9.1)
Visibility0600 m
Phenomena:Shower Rain
Clouds:Overcast 001 Hf
Ceiling100 ft
Temp23°C (ISA +10)
Dew Point23°C (100% RH)
QNH1015 hPa
Density Alt2,283 ft
Elevation850 ft
Report Wrong Elevation
Raw Report
SPECI YPXM 270507Z AUTO 11009KT 0600 SHRA OVC001 23/23 Q1015=

Extra information for YPXM:More info

Metar Taf Metar & Taf Last 4 Metars F.Rules Stats Wind Profile Meteogram Temp Stats Airport Information Weather charts Add Link Nearby VenuesMetar ALERT Operation Metar Decoded Social comments